City Of Joliet — WDC2653 — position and weather

sailwx.info

Track history (hours):
 
Tides and Currents Weather Stations Pressure Air Temp Water Temp Dewpoint Dewpoint Depression Visibility Wind Speed Wind Dir Waves Ship Positions

City Of Joliet

Owner: Kirby Inland Marine LP, Houston, TX. More information available from US FCC via Universal Licensing System and Coast Guard Vessel Documentation Center.

Last reported at 2017-Dec-30 16:43 UTC. Time now 2018-Jan-18 06:07 UTC.
Position N 32°36' W 091°09'.
Warning: this ship's position is 18 days out of date.

Length 231 m; draft 2.7 m.

Type: . MMSI: 365947464.

Date/timePositionNaut miles runAvg speedWind from/ knotsBaromVisibWave heightAir tempDewpointWater temp
2017-Dec-30 16:43N 32°36' W 091°09'1 3.8
2017-Dec-30 16:31N 32°36' W 091°08'5 3.8
2017-Dec-30 15:05N 32°30' W 091°07'1 5.6
2017-Dec-30 14:59N 32°30' W 091°07'2 4.1
2017-Dec-30 14:31N 32°28' W 091°06'2 4.6
2017-Dec-30 14:01N 32°27' W 091°04'2 4.2
2017-Dec-30 13:30N 32°26' W 091°02'2 4.0
2017-Dec-30 13:01N 32°25' W 090°60'2 3.8
2017-Dec-30 12:30N 32°23' W 091°00'1 1.4
2017-Dec-30 12:01N 32°22' W 091°00'2 3.4
2017-Dec-30 11:31N 32°21' W 090°59'2 4.7
2017-Dec-30 11:00N 32°21' W 090°56'2 4.2
2017-Dec-30 10:31N 32°20' W 090°54'2 4.4
2017-Dec-30 10:01N 32°18' W 090°55'2 4.4
2017-Dec-30 09:31N 32°17' W 090°57'2 3.7
2017-Dec-30 09:01N 32°15' W 090°59'2 3.4
2017-Dec-30 08:30N 32°13' W 090°59'2 4.3
2017-Dec-30 08:01N 32°11' W 090°60'2 3.9
2017-Dec-30 07:31N 32°09' W 091°00'1 2.4
2017-Dec-30 07:01N 32°08' W 091°00'2 3.6
2017-Dec-30 06:30N 32°07' W 091°02'2 3.8
2017-Dec-30 06:01N 32°08' W 091°04'2 3.9
2017-Dec-30 05:31N 32°08' W 091°06'5 3.8
2017-Dec-30 04:12N 32°03' W 091°03'1 3.0
2017-Dec-30 04:01N 32°03' W 091°04'1 2.9
2017-Dec-30 03:29N 32°01' W 091°04'  
2017-Dec-25 05:07N 32°05' W 091°05'1 6.3
2017-Dec-25 05:00N 32°05' W 091°05'4 4.3
2017-Dec-25 04:02N 32°08' W 091°01'0 8.6
2017-Dec-25 04:00N 32°08' W 091°01'4 9.0
2017-Dec-25 03:30N 32°12' W 090°59'4 9.0
2017-Dec-25 03:00N 32°16' W 090°58'4 7.5
2017-Dec-25 02:30N 32°19' W 090°54'2 4.9
2017-Dec-25 02:00N 32°21' W 090°56'2 4.7
2017-Dec-25 01:30N 32°21' W 090°59'2 3.8
2017-Dec-25 01:00N 32°22' W 091°00'3 5.8
2017-Dec-25 00:30N 32°25' W 090°60'3 6.3
2017-Dec-25 00:00N 32°26' W 091°03'4 8.0
2017-Dec-24 23:30N 32°29' W 091°07'5 9.0
2017-Dec-24 23:00N 32°33' W 091°06'4 8.8
2017-Dec-24 22:30N 32°37' W 091°09'  
Track history (hours):
 
Tides and Currents Weather Stations Pressure Air Temp Water Temp Dewpoint Dewpoint Depression Visibility Wind Speed Wind Dir Waves Ship Positions

City Of Joliet

Owner: Kirby Inland Marine LP, Houston, TX. More information available from US FCC via Universal Licensing System and Coast Guard Vessel Documentation Center.

Last reported at 2017-Dec-30 16:43 UTC. Time now 2018-Jan-18 06:07 UTC.
Position N 32°36' W 091°09'.
Warning: this ship's position is 18 days out of date.

Length 231 m; draft 2.7 m.

Type: . MMSI: 365947464.

Date/timePositionNaut miles runAvg speedWind from/ knotsBaromVisibWave heightAir tempDewpointWater temp
2017-Dec-30 16:43N 32°36' W 091°09'1 3.8
2017-Dec-30 16:31N 32°36' W 091°08'5 3.8
2017-Dec-30 15:05N 32°30' W 091°07'1 5.6
2017-Dec-30 14:59N 32°30' W 091°07'2 4.1
2017-Dec-30 14:31N 32°28' W 091°06'2 4.6
2017-Dec-30 14:01N 32°27' W 091°04'2 4.2
2017-Dec-30 13:30N 32°26' W 091°02'2 4.0
2017-Dec-30 13:01N 32°25' W 090°60'2 3.8
2017-Dec-30 12:30N 32°23' W 091°00'1 1.4
2017-Dec-30 12:01N 32°22' W 091°00'2 3.4
2017-Dec-30 11:31N 32°21' W 090°59'2 4.7
2017-Dec-30 11:00N 32°21' W 090°56'2 4.2
2017-Dec-30 10:31N 32°20' W 090°54'2 4.4
2017-Dec-30 10:01N 32°18' W 090°55'2 4.4
2017-Dec-30 09:31N 32°17' W 090°57'2 3.7
2017-Dec-30 09:01N 32°15' W 090°59'2 3.4
2017-Dec-30 08:30N 32°13' W 090°59'2 4.3
2017-Dec-30 08:01N 32°11' W 090°60'2 3.9
2017-Dec-30 07:31N 32°09' W 091°00'1 2.4
2017-Dec-30 07:01N 32°08' W 091°00'2 3.6
2017-Dec-30 06:30N 32°07' W 091°02'2 3.8
2017-Dec-30 06:01N 32°08' W 091°04'2 3.9
2017-Dec-30 05:31N 32°08' W 091°06'5 3.8
2017-Dec-30 04:12N 32°03' W 091°03'1 3.0
2017-Dec-30 04:01N 32°03' W 091°04'1 2.9
2017-Dec-30 03:29N 32°01' W 091°04'  
2017-Dec-25 05:07N 32°05' W 091°05'1 6.3
2017-Dec-25 05:00N 32°05' W 091°05'4 4.3
2017-Dec-25 04:02N 32°08' W 091°01'0 8.6
2017-Dec-25 04:00N 32°08' W 091°01'4 9.0
2017-Dec-25 03:30N 32°12' W 090°59'4 9.0
2017-Dec-25 03:00N 32°16' W 090°58'4 7.5
2017-Dec-25 02:30N 32°19' W 090°54'2 4.9
2017-Dec-25 02:00N 32°21' W 090°56'2 4.7
2017-Dec-25 01:30N 32°21' W 090°59'2 3.8
2017-Dec-25 01:00N 32°22' W 091°00'3 5.8
2017-Dec-25 00:30N 32°25' W 090°60'3 6.3
2017-Dec-25 00:00N 32°26' W 091°03'4 8.0
2017-Dec-24 23:30N 32°29' W 091°07'5 9.0
2017-Dec-24 23:00N 32°33' W 091°06'4 8.8
2017-Dec-24 22:30N 32°37' W 091°09'  

Dump ship's entire track history